Time;durP1;ratioP1;P1;durP2;ratioP2;P2;SDS_P1;SDS_P2;PMS_P1;PMS_P2;Temp;Humidity;BMP_temperature;BMP_pressure;BME280_temperature;BME280_humidity;BME280_pressure;Samples;Min_cycle;Max_cycle;Signal;HPM_P1;HPM_P2
2023/06/22 00:01:18;;;;;;;0.10;0.10;;;15.30;64.40;;;;;;5053854;28;20682;-55
2023/06/22 00:03:48;;;;;;;0.10;0.10;;;15.30;64.40;;;;;;5053634;28;20199;-56
2023/06/22 00:06:19;;;;;;;0.10;0.10;;;15.20;64.30;;;;;;5054030;28;20650;-51
2023/06/22 00:08:50;;;;;;;0.20;0.20;;;15.30;64.40;;;;;;5060597;28;20227;-54
2023/06/22 00:11:20;;;;;;;0.10;0.10;;;15.30;64.40;;;;;;5073231;28;20199;-50
2023/06/22 00:13:51;;;;;;;0.10;0.10;;;15.30;64.40;;;;;;5073645;28;20412;-55
2023/06/22 00:16:23;;;;;;;0.13;0.13;;;15.30;64.40;;;;;;5073751;28;20203;-51
2023/06/22 00:18:54;;;;;;;0.10;0.10;;;15.30;64.40;;;;;;5073180;28;20215;-49
2023/06/22 00:21:25;;;;;;;0.20;0.20;;;15.30;64.40;;;;;;5072950;28;20248;-51
2023/06/22 00:23:55;;;;;;;0.10;0.10;;;15.30;64.30;;;;;;5073060;28;20682;-53
2023/06/22 00:26:26;;;;;;;0.10;0.10;;;15.30;64.30;;;;;;5054442;28;20195;-55
2023/06/22 00:28:57;;;;;;;0.10;0.10;;;15.30;64.30;;;;;;5053068;28;20288;-54
2023/06/22 00:31:29;;;;;;;0.10;0.10;;;15.30;64.40;;;;;;5053329;28;20191;-51
2023/06/22 00:34:00;;;;;;;0.10;0.10;;;15.30;64.40;;;;;;5053358;28;20195;-48
2023/06/22 00:36:30;;;;;;;0.20;0.20;;;15.30;64.40;;;;;;5053365;28;20575;-54
2023/06/22 00:39:01;;;;;;;0.17;0.17;;;15.30;64.40;;;;;;5062803;28;20276;-51
2023/06/22 00:41:32;;;;;;;0.10;0.10;;;15.30;64.40;;;;;;5072892;28;20194;-52
2023/06/22 00:44:02;;;;;;;0.15;0.15;;;15.30;64.40;;;;;;5073100;28;20670;-51
2023/06/22 00:46:35;;;;;;;0.10;0.10;;;15.40;64.50;;;;;;5072953;28;20610;-51
2023/06/22 00:49:06;;;;;;;0.03;0.03;;;15.40;64.40;;;;;;5072773;28;20221;-51
2023/06/22 00:51:37;;;;;;;0.20;0.20;;;15.40;64.40;;;;;;5053635;28;20195;-53
2023/06/22 00:54:08;;;;;;;0.10;0.10;;;15.40;64.50;;;;;;5052684;28;20235;-52
2023/06/22 00:56:39;;;;;;;0.10;0.10;;;15.30;64.40;;;;;;5052451;28;20202;-51
2023/06/22 00:59:12;;;;;;;0.10;0.10;;;15.40;64.40;;;;;;5051208;28;20241;-55
2023/06/22 01:01:44;;;;;;;0.10;0.10;;;15.30;64.40;;;;;;5052127;28;20233;-51
2023/06/22 01:04:15;;;;;;;0.10;0.10;;;15.40;64.50;;;;;;5052437;28;20739;-49
2023/06/22 01:07:01;;;;;;;0.10;0.10;;;15.40;64.40;;;;;;5052266;28;20648;-50
2023/06/22 01:09:38;;;;;;;0.10;0.10;;;15.40;64.40;;;;;;5065746;28;20226;-50
2023/06/22 01:12:11;;;;;;;0.10;0.10;;;15.40;64.40;;;;;;5072379;28;20195;-51
2023/06/22 01:14:49;;;;;;;0.08;0.08;;;15.40;64.40;;;;;;5072392;28;20202;-48
2023/06/22 01:17:24;;;;;;;0.20;0.20;;;15.40;64.50;;;;;;5072579;28;20221;-51
2023/06/22 01:19:57;;;;;;;0.10;0.10;;;15.40;64.50;;;;;;5072277;28;20248;-51
2023/06/22 01:22:32;;;;;;;0.00;0.00;;;15.40;64.50;;;;;;5072197;28;20202;-54
2023/06/22 01:25:13;;;;;;;0.00;0.00;;;15.40;64.50;;;;;;5071984;28;20195;-55
2023/06/22 01:27:55;;;;;;;0.20;0.20;;;15.40;64.60;;;;;;5072059;28;20704;-50
2023/06/22 01:30:30;;;;;;;0.10;0.10;;;15.40;64.60;;;;;;5061427;28;20231;-55
2023/06/22 01:33:01;;;;;;;0.10;0.10;;;15.50;64.60;;;;;;5044959;28;20199;-56
2023/06/22 01:35:33;;;;;;;0.10;0.10;;;15.50;64.70;;;;;;5050944;28;20188;-54
2023/06/22 01:38:04;;;;;;;0.10;0.10;;;15.50;64.70;;;;;;5048127;28;20219;-55
2023/06/22 01:40:36;;;;;;;0.10;0.10;;;15.50;64.70;;;;;;5064291;28;20214;-52
2023/06/22 01:43:07;;;;;;;0.10;0.10;;;15.50;64.70;;;;;;5051096;28;20191;-55
2023/06/22 01:45:40;;;;;;;0.10;0.10;;;15.50;64.70;;;;;;5051540;28;20207;-56
2023/06/22 01:48:11;;;;;;;0.10;0.10;;;15.50;64.60;;;;;;5051157;28;20207;-54
2023/06/22 01:50:42;;;;;;;0.10;0.10;;;15.50;64.70;;;;;;5051624;28;20353;-56
2023/06/22 01:53:13;;;;;;;0.10;0.10;;;15.50;64.70;;;;;;5050518;28;20572;-55
2023/06/22 01:55:43;;;;;;;0.10;0.10;;;15.50;64.70;;;;;;5051364;28;20195;-56
2023/06/22 01:58:15;;;;;;;0.10;0.10;;;15.50;64.70;;;;;;5051149;28;20225;-51
2023/06/22 02:00:51;;;;;;;0.10;0.10;;;15.50;64.70;;;;;;5049976;28;20426;-54
2023/06/22 02:03:25;;;;;;;0.10;0.10;;;15.50;64.70;;;;;;5050882;28;20199;-56
2023/06/22 02:05:59;;;;;;;0.10;0.10;;;15.50;64.60;;;;;;5051420;28;20199;-56
2023/06/22 02:08:34;;;;;;;0.10;0.10;;;15.50;64.60;;;;;;5055232;28;20698;-54
2023/06/22 02:11:08;;;;;;;0.10;0.10;;;15.50;64.60;;;;;;5060958;28;20222;-54
2023/06/22 02:13:42;;;;;;;0.13;0.13;;;15.50;64.60;;;;;;5055410;28;20206;-54
2023/06/22 02:16:17;;;;;;;0.10;0.10;;;15.50;64.50;;;;;;5059816;28;20195;-54
2023/06/22 02:18:52;;;;;;;0.10;0.10;;;15.60;64.60;;;;;;5065927;28;20280;-55
2023/06/22 02:21:23;;;;;;;0.10;0.10;;;15.60;64.60;;;;;;5059048;28;20622;-49
2023/06/22 02:23:54;;;;;;;0.10;0.10;;;15.60;64.70;;;;;;5050539;28;20648;-48
2023/06/22 02:26:26;;;;;;;0.00;0.00;;;15.50;64.60;;;;;;5050385;28;20192;-53
2023/06/22 02:28:56;;;;;;;0.10;0.10;;;15.60;64.70;;;;;;5050902;28;20219;-54
2023/06/22 02:31:30;;;;;;;0.20;0.20;;;15.60;64.80;;;;;;5050736;28;20219;-55
2023/06/22 02:34:02;;;;;;;0.10;0.10;;;15.60;64.80;;;;;;5050928;28;20267;-56
2023/06/22 02:36:33;;;;;;;0.10;0.10;;;15.60;64.80;;;;;;5051143;28;20187;-52
2023/06/22 02:39:04;;;;;;;0.10;0.10;;;15.60;64.80;;;;;;5060112;28;20222;-56
2023/06/22 02:41:34;;;;;;;0.10;0.10;;;15.60;64.80;;;;;;5057452;28;20274;-54
2023/06/22 02:44:05;;;;;;;0.08;0.08;;;15.60;64.80;;;;;;5050784;28;20698;-56
2023/06/22 02:46:38;;;;;;;0.10;0.10;;;15.60;64.90;;;;;;5050871;28;20472;-56
2023/06/22 02:49:09;;;;;;;0.10;0.10;;;15.60;64.80;;;;;;5049853;28;20227;-53
2023/06/22 02:51:42;;;;;;;0.10;0.10;;;15.70;64.80;;;;;;5050450;28;20231;-50
2023/06/22 02:54:12;;;;;;;0.10;0.10;;;15.60;64.80;;;;;;5050046;28;20196;-51
2023/06/22 02:56:43;;;;;;;0.10;0.10;;;15.70;64.80;;;;;;5050137;28;20192;-56
2023/06/22 02:59:14;;;;;;;0.10;0.10;;;15.70;64.90;;;;;;5049310;28;20211;-55
2023/06/22 03:01:46;;;;;;;0.10;0.10;;;15.70;64.90;;;;;;5050132;28;20210;-55
2023/06/22 03:04:17;;;;;;;0.10;0.10;;;15.70;65.00;;;;;;5050114;28;20191;-57
2023/06/22 03:06:50;;;;;;;0.05;0.05;;;15.70;64.90;;;;;;5050424;28;20206;-56
2023/06/22 03:09:21;;;;;;;0.10;0.10;;;15.70;64.90;;;;;;5060278;28;20249;-52
2023/06/22 03:11:52;;;;;;;0.10;0.10;;;15.70;65.00;;;;;;5050138;28;20231;-54
2023/06/22 03:14:22;;;;;;;0.10;0.10;;;15.70;65.00;;;;;;5054927;28;20206;-51
2023/06/22 03:16:55;;;;;;;0.20;0.20;;;15.70;65.00;;;;;;5068864;28;20643;-55
2023/06/22 03:19:25;;;;;;;0.00;0.00;;;15.70;65.10;;;;;;5068157;28;20239;-56
2023/06/22 03:21:56;;;;;;;0.10;0.10;;;15.70;65.10;;;;;;5051085;28;20209;-55
2023/06/22 03:24:28;;;;;;;0.10;0.10;;;15.70;65.00;;;;;;5053766;28;20204;-55
2023/06/22 03:26:59;;;;;;;0.10;0.10;;;15.70;65.00;;;;;;5054127;28;20199;-50
2023/06/22 03:29:29;;;;;;;0.00;0.00;;;15.70;65.00;;;;;;5053375;28;20282;-55
2023/06/22 03:32:02;;;;;;;0.10;0.10;;;15.80;65.00;;;;;;5053958;28;20234;-57
2023/06/22 03:34:33;;;;;;;0.20;0.20;;;15.80;65.10;;;;;;5050463;28;20683;-54
2023/06/22 03:37:04;;;;;;;0.10;0.10;;;15.70;65.00;;;;;;5053281;28;20227;-56
2023/06/22 03:39:35;;;;;;;0.05;0.05;;;15.80;65.00;;;;;;5065661;28;20199;-57
2023/06/22 03:42:06;;;;;;;0.10;0.10;;;15.80;65.10;;;;;;5053632;28;20202;-54
2023/06/22 03:44:37;;;;;;;0.10;0.10;;;15.80;65.10;;;;;;5053069;28;20199;-56
2023/06/22 03:47:10;;;;;;;0.10;0.10;;;15.80;65.10;;;;;;5053295;28;20250;-56
2023/06/22 03:49:41;;;;;;;0.10;0.10;;;15.80;65.10;;;;;;5052858;28;20207;-55
2023/06/22 03:52:12;;;;;;;0.20;0.20;;;15.80;65.10;;;;;;5053015;28;20226;-55
2023/06/22 03:54:43;;;;;;;0.10;0.10;;;15.80;65.10;;;;;;5053529;28;20234;-55
2023/06/22 03:57:13;;;;;;;0.10;0.10;;;15.80;65.10;;;;;;5052447;28;20195;-53
2023/06/22 03:59:44;;;;;;;0.05;0.05;;;15.90;65.20;;;;;;5053689;28;20610;-57
2023/06/22 04:02:17;;;;;;;0.10;0.10;;;15.90;65.20;;;;;;5052574;28;20196;-57
2023/06/22 04:04:47;;;;;;;0.00;0.00;;;15.90;65.10;;;;;;5052873;28;20188;-55
2023/06/22 04:07:18;;;;;;;0.10;0.10;;;15.90;65.10;;;;;;5053100;28;20199;-56
2023/06/22 04:09:49;;;;;;;0.10;0.10;;;15.90;65.10;;;;;;5066319;28;20662;-53
2023/06/22 04:12:19;;;;;;;0.03;0.03;;;15.90;65.90;;;;;;5053128;28;20199;-55
2023/06/22 04:14:50;;;;;;;0.10;0.10;;;15.90;65.10;;;;;;5052740;28;20789;-54
2023/06/22 04:17:24;;;;;;;0.00;0.00;;;15.90;65.00;;;;;;5052683;28;20231;-54
2023/06/22 04:19:55;;;;;;;0.00;0.00;;;15.90;65.10;;;;;;5052246;28;20190;-56
2023/06/22 04:22:26;;;;;;;0.10;0.10;;;15.90;65.00;;;;;;5052874;28;20199;-52
2023/06/22 04:24:56;;;;;;;0.10;0.10;;;15.90;65.10;;;;;;5052112;28;20191;-57
2023/06/22 04:27:27;;;;;;;0.05;0.05;;;15.90;65.20;;;;;;5052334;28;20216;-57
2023/06/22 04:30:00;;;;;;;0.05;0.05;;;16.00;65.50;;;;;;5052310;28;20206;-54
2023/06/22 04:32:32;;;;;;;0.10;0.10;;;16.00;65.50;;;;;;5053208;28;20195;-52
2023/06/22 04:35:04;;;;;;;0.00;0.00;;;16.00;65.50;;;;;;5053361;28;20222;-53
2023/06/22 04:37:35;;;;;;;0.03;0.03;;;16.00;65.70;;;;;;5052858;28;20251;-57
2023/06/22 04:40:05;;;;;;;0.10;0.10;;;16.00;65.70;;;;;;5068139;28;20683;-56
2023/06/22 04:42:38;;;;;;;0.05;0.05;;;16.00;65.70;;;;;;5052656;28;20204;-50
2023/06/22 04:45:10;;;;;;;0.10;0.10;;;16.00;65.70;;;;;;5052442;28;20234;-51
2023/06/22 04:47:42;;;;;;;0.00;0.00;;;16.00;66.40;;;;;;5053020;28;20310;-54
2023/06/22 04:50:13;;;;;;;0.10;0.10;;;16.10;65.60;;;;;;5052636;28;20196;-48
2023/06/22 04:52:45;;;;;;;0.05;0.05;;;16.10;65.60;;;;;;5052658;28;20621;-51
2023/06/22 04:55:18;;;;;;;0.08;0.08;;;16.10;65.50;;;;;;5052235;28;20195;-50
2023/06/22 04:57:50;;;;;;;0.10;0.10;;;16.10;65.50;;;;;;5052702;28;20219;-49
2023/06/22 05:00:22;;;;;;;0.10;0.10;;;16.10;65.50;;;;;;5052109;28;20686;-49
2023/06/22 05:02:56;;;;;;;0.10;0.10;;;16.10;65.40;;;;;;5052721;28;20726;-50
2023/06/22 05:05:27;;;;;;;0.10;0.10;;;16.10;65.40;;;;;;5052713;28;20273;-48
2023/06/22 05:08:01;;;;;;;0.05;0.05;;;16.20;65.50;;;;;;5052489;28;20632;-50
2023/06/22 05:10:32;;;;;;;0.10;0.10;;;16.10;65.30;;;;;;5072974;28;20230;-48
2023/06/22 05:13:02;;;;;;;0.10;0.10;;;16.10;65.30;;;;;;5072049;28;20191;-54
2023/06/22 05:15:36;;;;;;;0.10;0.10;;;16.20;65.40;;;;;;5064105;28;20202;-49
2023/06/22 05:18:09;;;;;;;0.10;0.10;;;16.20;65.30;;;;;;5052328;28;20695;-51
2023/06/22 05:20:39;;;;;;;0.10;0.10;;;16.20;65.30;;;;;;5052421;28;20195;-52
2023/06/22 05:23:10;;;;;;;0.10;0.10;;;16.20;65.20;;;;;;5052345;28;20567;-53
2023/06/22 05:25:41;;;;;;;0.00;0.00;;;16.20;65.20;;;;;;5051459;28;20290;-52
2023/06/22 05:28:12;;;;;;;0.00;0.00;;;16.20;65.30;;;;;;5051911;28;20219;-53
2023/06/22 05:30:42;;;;;;;0.10;0.10;;;16.20;65.20;;;;;;5051990;28;20686;-52
2023/06/22 05:33:15;;;;;;;0.10;0.10;;;16.20;65.20;;;;;;5051689;28;20249;-53
2023/06/22 05:35:46;;;;;;;0.10;0.10;;;16.20;65.20;;;;;;5051911;28;20199;-50
2023/06/22 05:38:17;;;;;;;0.10;0.10;;;16.20;65.20;;;;;;5055017;28;20218;-50
2023/06/22 05:40:47;;;;;;;0.10;0.10;;;16.20;65.20;;;;;;5072493;28;20202;-54
2023/06/22 05:43:18;;;;;;;0.10;0.10;;;16.20;65.10;;;;;;5072054;28;20198;-54
2023/06/22 05:45:49;;;;;;;0.10;0.10;;;16.20;65.10;;;;;;5070923;28;20217;-53
2023/06/22 05:48:21;;;;;;;0.00;0.00;;;16.20;65.10;;;;;;5071443;28;20215;-51
2023/06/22 05:50:52;;;;;;;0.10;0.10;;;16.20;65.10;;;;;;5071453;28;20283;-51
2023/06/22 05:53:22;;;;;;;0.10;0.10;;;16.30;65.10;;;;;;5071327;28;20199;-53
2023/06/22 05:55:53;;;;;;;0.08;0.08;;;16.30;65.20;;;;;;5071408;28;20240;-51
2023/06/22 05:58:24;;;;;;;0.10;0.10;;;16.30;65.10;;;;;;5067425;28;20226;-49
2023/06/22 06:00:55;;;;;;;0.10;0.10;;;16.30;65.10;;;;;;5051418;28;20200;-47
2023/06/22 06:03:28;;;;;;;0.10;0.10;;;16.30;65.10;;;;;;5051842;28;20196;-47
2023/06/22 06:05:59;;;;;;;0.10;0.10;;;16.30;65.10;;;;;;5050848;28;20202;-50
2023/06/22 06:08:29;;;;;;;0.10;0.10;;;16.30;65.10;;;;;;5055292;28;20698;-53
2023/06/22 06:11:00;;;;;;;0.10;0.10;;;16.30;65.20;;;;;;5071339;28;20230;-48
2023/06/22 06:13:31;;;;;;;0.03;0.03;;;16.30;65.20;;;;;;5071354;28;20199;-48
2023/06/22 06:16:01;;;;;;;0.10;0.10;;;16.30;65.20;;;;;;5070351;28;20210;-50
2023/06/22 06:18:34;;;;;;;0.10;0.10;;;16.30;65.20;;;;;;5069826;28;20214;-50
2023/06/22 06:21:04;;;;;;;0.00;0.00;;;16.30;65.20;;;;;;5071208;28;20194;-49
2023/06/22 06:23:35;;;;;;;0.03;0.03;;;16.30;65.10;;;;;;5059496;28;20228;-51
2023/06/22 06:26:06;;;;;;;0.00;0.00;;;16.30;65.10;;;;;;5047952;28;20651;-48
2023/06/22 06:28:37;;;;;;;0.00;0.00;;;16.30;65.10;;;;;;5051605;28;20251;-48
2023/06/22 06:31:08;;;;;;;0.00;0.00;;;16.30;65.00;;;;;;5051576;28;20215;-51
2023/06/22 06:33:41;;;;;;;0.08;0.08;;;16.30;65.00;;;;;;5051726;28;20195;-51
2023/06/22 06:36:11;;;;;;;0.10;0.10;;;16.30;65.00;;;;;;5051242;28;20568;-48
2023/06/22 06:38:42;;;;;;;0.03;0.03;;;16.30;65.00;;;;;;5051608;28;20223;-53
2023/06/22 06:41:13;;;;;;;0.00;0.00;;;16.30;65.00;;;;;;5051539;28;20206;-51
2023/06/22 06:43:44;;;;;;;0.10;0.10;;;16.30;65.00;;;;;;5051401;28;20199;-51
2023/06/22 06:46:15;;;;;;;0.00;0.00;;;16.30;65.00;;;;;;5051241;28;20287;-47
2023/06/22 06:48:47;;;;;;;0.00;0.00;;;16.30;65.00;;;;;;5050503;28;20226;-55
2023/06/22 06:51:18;;;;;;;0.03;0.03;;;16.30;65.00;;;;;;5050961;28;20219;-47
2023/06/22 06:53:48;;;;;;;0.00;0.00;;;16.40;65.00;;;;;;5050564;28;20560;-50
2023/06/22 06:56:19;;;;;;;0.10;0.10;;;16.40;65.00;;;;;;5051273;28;20195;-54
2023/06/22 06:58:52;;;;;;;0.10;0.10;;;16.30;64.90;;;;;;5054931;28;20215;-51
2023/06/22 07:01:22;;;;;;;0.03;0.03;;;16.30;64.90;;;;;;5054798;28;20604;-51
2023/06/22 07:03:55;;;;;;;0.00;0.00;;;16.30;64.90;;;;;;5054079;28;20184;-54
2023/06/22 07:06:28;;;;;;;0.10;0.10;;;16.30;65.00;;;;;;5054506;28;20287;-51
2023/06/22 07:08:59;;;;;;;0.10;0.10;;;16.30;65.00;;;;;;5054462;28;20215;-51
2023/06/22 07:11:30;;;;;;;0.10;0.10;;;16.30;65.00;;;;;;5054539;28;20305;-49
2023/06/22 07:14:01;;;;;;;0.10;0.10;;;16.30;65.70;;;;;;5055046;28;20234;-55
2023/06/22 07:16:32;;;;;;;0.10;0.10;;;16.30;64.90;;;;;;5054943;28;20234;-54
2023/06/22 07:19:05;;;;;;;0.00;0.00;;;16.30;64.90;;;;;;5054230;28;20687;-50
2023/06/22 07:21:35;;;;;;;0.08;0.08;;;16.30;64.90;;;;;;5054592;28;20235;-51
2023/06/22 07:24:07;;;;;;;0.08;0.08;;;16.40;65.00;;;;;;5054121;28;20192;-54
2023/06/22 07:26:38;;;;;;;0.00;0.00;;;16.30;64.90;;;;;;5054948;28;20671;-51
2023/06/22 07:29:08;;;;;;;0.08;0.08;;;16.30;64.90;;;;;;5054658;28;20265;-53
2023/06/22 07:31:40;;;;;;;0.10;0.10;;;16.40;65.00;;;;;;5054357;28;20619;-55
2023/06/22 07:34:12;;;;;;;0.00;0.00;;;16.40;65.00;;;;;;5054121;28;20199;-53
2023/06/22 07:36:43;;;;;;;0.00;0.00;;;16.30;65.10;;;;;;5054414;28;20640;-50
2023/06/22 07:39:14;;;;;;;0.10;0.10;;;16.30;65.10;;;;;;5054836;28;20220;-56
2023/06/22 07:41:45;;;;;;;0.03;0.03;;;16.30;65.10;;;;;;5054480;28;20235;-55
2023/06/22 07:44:15;;;;;;;0.10;0.10;;;16.30;65.10;;;;;;5054541;28;20203;-47
2023/06/22 07:46:46;;;;;;;0.10;0.10;;;16.40;65.10;;;;;;5054358;28;20215;-49
2023/06/22 07:49:19;;;;;;;0.10;0.10;;;16.40;65.10;;;;;;5053703;28;20318;-47
2023/06/22 07:51:50;;;;;;;0.00;0.00;;;16.40;65.10;;;;;;5054036;28;20710;-51
2023/06/22 07:54:21;;;;;;;0.08;0.08;;;16.30;65.00;;;;;;5053751;28;20300;-49
2023/06/22 07:56:51;;;;;;;0.10;0.10;;;16.30;65.00;;;;;;5053723;28;20200;-47
2023/06/22 07:59:22;;;;;;;0.10;0.10;;;16.30;65.00;;;;;;5054120;28;20231;-50
2023/06/22 08:01:53;;;;;;;0.00;0.00;;;16.30;65.00;;;;;;5053724;28;20231;-55
2023/06/22 08:04:27;;;;;;;0.10;0.10;;;16.40;65.00;;;;;;5053289;28;20242;-47
2023/06/22 08:06:57;;;;;;;0.00;0.00;;;16.40;65.00;;;;;;5053535;28;20195;-51
2023/06/22 08:09:28;;;;;;;0.08;0.08;;;16.40;65.00;;;;;;5053563;28;20612;-47
2023/06/22 08:11:58;;;;;;;0.10;0.10;;;16.40;65.00;;;;;;5053845;28;20219;-47
2023/06/22 08:14:30;;;;;;;0.00;0.00;;;16.40;65.00;;;;;;5053250;28;20618;-48
2023/06/22 08:17:01;;;;;;;0.10;0.10;;;16.40;65.00;;;;;;5053437;28;20196;-48
2023/06/22 08:19:33;;;;;;;0.10;0.10;;;16.40;65.00;;;;;;5052717;28;20195;-47
2023/06/22 08:22:04;;;;;;;0.05;0.05;;;16.40;65.00;;;;;;5053126;28;20196;-49
2023/06/22 08:24:34;;;;;;;0.00;0.00;;;16.40;65.00;;;;;;5052674;28;20271;-48
2023/06/22 08:27:06;;;;;;;0.00;0.00;;;16.40;64.90;;;;;;5053529;28;20540;-47
2023/06/22 08:29:37;;;;;;;0.10;0.10;;;16.40;64.90;;;;;;5053619;28;20196;-48
2023/06/22 08:32:08;;;;;;;0.10;0.10;;;16.40;65.00;;;;;;5053431;28;20231;-47
2023/06/22 08:34:42;;;;;;;0.10;0.10;;;16.40;65.00;;;;;;5052873;28;20192;-47
2023/06/22 08:37:13;;;;;;;0.00;0.00;;;16.30;64.80;;;;;;5053406;28;20199;-50
2023/06/22 08:39:43;;;;;;;0.10;0.10;;;16.40;64.90;;;;;;5053534;28;20204;-48
2023/06/22 08:42:14;;;;;;;0.10;0.10;;;16.40;64.80;;;;;;5053113;28;20202;-50
2023/06/22 08:44:45;;;;;;;0.10;0.10;;;16.40;64.90;;;;;;5053360;28;20693;-48
2023/06/22 08:47:15;;;;;;;0.10;0.10;;;16.40;64.90;;;;;;5052774;28;20215;-51
2023/06/22 08:49:48;;;;;;;0.08;0.08;;;16.40;64.90;;;;;;5053057;28;20206;-51
2023/06/22 08:52:19;;;;;;;0.08;0.08;;;16.40;64.90;;;;;;5053221;28;20253;-47
2023/06/22 08:54:50;;;;;;;0.10;0.10;;;16.40;64.90;;;;;;5052661;28;20194;-47
2023/06/22 08:57:21;;;;;;;0.03;0.03;;;16.40;64.90;;;;;;5052850;28;20223;-52
2023/06/22 08:59:52;;;;;;;0.00;0.00;;;16.40;64.90;;;;;;5053205;28;20200;-47
2023/06/22 09:02:23;;;;;;;0.03;0.03;;;16.40;64.90;;;;;;5051916;28;20196;-48
2023/06/22 09:04:55;;;;;;;0.10;0.10;;;16.40;64.90;;;;;;5052655;28;20195;-48
2023/06/22 09:07:26;;;;;;;0.10;0.10;;;16.40;64.90;;;;;;5052457;28;20216;-47
2023/06/22 09:09:59;;;;;;;0.10;0.10;;;16.40;64.90;;;;;;5052402;28;20195;-51
2023/06/22 09:12:30;;;;;;;0.10;0.10;;;16.40;64.90;;;;;;5053683;28;20223;-47
2023/06/22 09:15:02;;;;;;;0.10;0.10;;;16.40;64.90;;;;;;5072831;28;20241;-49
2023/06/22 09:17:33;;;;;;;0.10;0.10;;;16.40;64.90;;;;;;5072609;28;20287;-50
2023/06/22 09:20:07;;;;;;;0.10;0.10;;;16.40;64.80;;;;;;5071912;28;20199;-49
2023/06/22 09:22:38;;;;;;;0.10;0.10;;;16.40;64.90;;;;;;5068679;28;20238;-56
2023/06/22 09:25:09;;;;;;;0.10;0.10;;;16.40;65.30;;;;;;5053965;28;20200;-52
2023/06/22 09:27:40;;;;;;;0.00;0.00;;;16.40;65.50;;;;;;5051875;28;20219;-49
2023/06/22 09:30:11;;;;;;;0.10;0.10;;;16.40;65.40;;;;;;5052245;28;20647;-51
2023/06/22 09:32:42;;;;;;;0.10;0.10;;;16.50;65.40;;;;;;5053967;28;20227;-55
2023/06/22 09:35:14;;;;;;;0.10;0.10;;;16.40;65.40;;;;;;5051306;28;20192;-52
2023/06/22 09:37:45;;;;;;;0.10;0.10;;;16.40;65.30;;;;;;5051691;28;20226;-56
2023/06/22 09:40:16;;;;;;;0.10;0.10;;;16.50;65.40;;;;;;5051578;28;20287;-54
2023/06/22 09:42:47;;;;;;;0.00;0.00;;;16.40;65.20;;;;;;5051129;28;20191;-53
2023/06/22 09:45:18;;;;;;;0.10;0.10;;;16.40;65.20;;;;;;5050755;28;20211;-54
2023/06/22 09:47:49;;;;;;;0.10;0.10;;;16.50;65.20;;;;;;5051632;28;20222;-53
2023/06/22 09:50:21;;;;;;;0.03;0.03;;;16.40;65.20;;;;;;5051681;28;20241;-53
2023/06/22 09:52:54;;;;;;;0.00;0.00;;;16.50;65.20;;;;;;5051518;28;20609;-51
2023/06/22 09:55:25;;;;;;;0.00;0.00;;;16.50;65.20;;;;;;5051212;28;20290;-56
2023/06/22 09:57:56;;;;;;;0.10;0.10;;;16.40;65.10;;;;;;5053059;28;20229;-54
2023/06/22 10:00:26;;;;;;;0.00;0.00;;;16.50;65.10;;;;;;5070201;28;20685;-57
2023/06/22 10:02:57;;;;;;;0.00;0.00;;;16.50;65.10;;;;;;5068288;28;20558;-54
2023/06/22 10:05:30;;;;;;;0.10;0.10;;;16.50;65.10;;;;;;5055737;28;20234;-52
2023/06/22 10:08:00;;;;;;;0.00;0.00;;;16.50;65.10;;;;;;5065612;28;20212;-55
2023/06/22 10:10:31;;;;;;;0.10;0.10;;;16.50;65.10;;;;;;5050656;28;20669;-54
2023/06/22 10:13:10;;;;;;;0.00;0.00;;;16.50;65.10;;;;;;5050693;28;20841;-54
2023/06/22 10:15:41;;;;;;;0.00;0.00;;;16.50;65.10;;;;;;5051092;28;20300;-55
2023/06/22 10:18:12;;;;;;;0.13;0.13;;;16.50;65.10;;;;;;5051013;28;20273;-54
2023/06/22 10:20:44;;;;;;;0.00;0.00;;;16.50;65.10;;;;;;5051634;28;20204;-55
2023/06/22 10:23:15;;;;;;;0.10;0.10;;;16.50;65.10;;;;;;5049901;28;20196;-55
2023/06/22 10:25:45;;;;;;;0.10;0.10;;;16.50;65.10;;;;;;5051869;28;20202;-55
2023/06/22 10:28:16;;;;;;;0.10;0.10;;;16.50;65.10;;;;;;5050440;28;20261;-54
2023/06/22 10:30:47;;;;;;;0.10;0.10;;;16.50;65.10;;;;;;5051444;28;20198;-53
2023/06/22 10:33:17;;;;;;;0.10;0.10;;;16.50;65.10;;;;;;5054805;28;20269;-54
2023/06/22 10:35:50;;;;;;;0.10;0.10;;;16.50;65.10;;;;;;5054943;28;20674;-54
2023/06/22 10:38:21;;;;;;;0.10;0.10;;;16.50;65.10;;;;;;5055431;28;20211;-55
2023/06/22 10:40:51;;;;;;;0.00;0.00;;;16.50;65.10;;;;;;5055465;28;20290;-56
2023/06/22 10:43:22;;;;;;;0.10;0.10;;;16.50;65.00;;;;;;5053953;28;20206;-54
2023/06/22 10:45:53;;;;;;;0.10;0.10;;;16.50;65.00;;;;;;5052444;28;20585;-54
2023/06/22 10:48:23;;;;;;;0.05;0.05;;;16.50;65.00;;;;;;5055204;28;20215;-56
2023/06/22 10:50:56;;;;;;;0.13;0.13;;;16.50;65.00;;;;;;5055383;28;20206;-55
2023/06/22 10:53:26;;;;;;;0.10;0.10;;;16.50;65.00;;;;;;5054387;28;20313;-57
2023/06/22 10:55:57;;;;;;;0.15;0.15;;;16.50;65.00;;;;;;5055564;28;20202;-55
2023/06/22 10:58:28;;;;;;;0.10;0.10;;;16.50;65.00;;;;;;5055187;28;20223;-55
2023/06/22 11:00:58;;;;;;;0.10;0.10;;;16.50;65.10;;;;;;5055255;28;20200;-56
2023/06/22 11:03:29;;;;;;;0.10;0.10;;;16.50;65.10;;;;;;5055226;28;20195;-55
2023/06/22 11:06:01;;;;;;;0.00;0.00;;;16.50;65.10;;;;;;5055128;28;20797;-55
2023/06/22 11:08:32;;;;;;;0.00;0.00;;;16.60;65.10;;;;;;5054322;28;20706;-54
2023/06/22 11:11:03;;;;;;;0.00;0.00;;;16.50;65.10;;;;;;5054754;28;20202;-54
2023/06/22 11:13:33;;;;;;;0.03;0.03;;;16.50;65.10;;;;;;5055002;28;20216;-52
2023/06/22 11:16:04;;;;;;;0.10;0.10;;;16.50;65.10;;;;;;5054990;28;20617;-54
2023/06/22 11:18:35;;;;;;;0.00;0.00;;;16.50;65.10;;;;;;5054799;28;20687;-53
2023/06/22 11:21:08;;;;;;;0.10;0.10;;;16.50;65.00;;;;;;5054766;28;20651;-54
2023/06/22 11:23:38;;;;;;;0.00;0.00;;;16.50;65.00;;;;;;5054172;28;20662;-55
2023/06/22 11:26:09;;;;;;;0.10;0.10;;;16.50;64.90;;;;;;5054374;28;20207;-52
2023/06/22 11:28:40;;;;;;;0.08;0.08;;;16.50;65.00;;;;;;5054557;28;20273;-54
2023/06/22 11:31:10;;;;;;;0.10;0.10;;;16.60;65.00;;;;;;5054680;28;20199;-56
2023/06/22 11:33:41;;;;;;;0.10;0.10;;;16.60;65.00;;;;;;5054644;28;20246;-56
2023/06/22 11:36:13;;;;;;;0.10;0.10;;;16.60;65.00;;;;;;5054305;28;20199;-55
2023/06/22 11:38:53;;;;;;;0.10;0.10;;;16.60;65.00;;;;;;5054377;28;20582;-55
2023/06/22 11:41:24;;;;;;;0.00;0.00;;;16.60;65.00;;;;;;5054113;28;20293;-54
2023/06/22 11:43:54;;;;;;;0.10;0.10;;;16.60;65.00;;;;;;5053408;28;20191;-53
2023/06/22 11:46:25;;;;;;;0.10;0.10;;;16.60;65.00;;;;;;5054487;28;20215;-53
2023/06/22 11:48:56;;;;;;;0.10;0.10;;;16.50;65.00;;;;;;5054254;28;20223;-54
2023/06/22 11:51:28;;;;;;;0.00;0.00;;;16.60;65.00;;;;;;5054127;28;20203;-54
2023/06/22 11:53:59;;;;;;;0.10;0.10;;;16.50;65.00;;;;;;5054004;28;20231;-57
2023/06/22 11:56:29;;;;;;;0.10;0.10;;;16.50;65.00;;;;;;5054208;28;20208;-51
2023/06/22 11:59:00;;;;;;;0.10;0.10;;;16.50;65.00;;;;;;5054266;28;20608;-54
2023/06/22 12:01:32;;;;;;;0.10;0.10;;;16.60;65.00;;;;;;5053963;28;20199;-51
2023/06/22 12:04:05;;;;;;;0.10;0.10;;;16.60;64.90;;;;;;5053991;28;20249;-54
2023/06/22 12:06:42;;;;;;;0.10;0.10;;;16.60;64.90;;;;;;5053733;28;20274;-54
2023/06/22 12:09:14;;;;;;;0.10;0.10;;;16.60;64.90;;;;;;5053171;28;20766;-53
2023/06/22 12:11:45;;;;;;;0.10;0.10;;;16.60;64.90;;;;;;5053693;28;20287;-57
2023/06/22 12:14:15;;;;;;;0.00;0.00;;;16.60;64.90;;;;;;5054001;28;20227;-54
2023/06/22 12:16:46;;;;;;;0.10;0.10;;;16.60;65.00;;;;;;5053546;28;20202;-50
2023/06/22 12:19:17;;;;;;;0.00;0.00;;;16.60;64.90;;;;;;5053399;28;20306;-49
2023/06/22 12:21:49;;;;;;;0.10;0.10;;;16.60;64.90;;;;;;5053621;28;20203;-57
2023/06/22 12:24:20;;;;;;;0.10;0.10;;;16.60;64.90;;;;;;5053594;28;20215;-54
2023/06/22 12:26:51;;;;;;;0.10;0.10;;;16.60;65.00;;;;;;5053764;28;20253;-55
2023/06/22 12:29:21;;;;;;;0.10;0.10;;;16.60;65.00;;;;;;5053405;28;20219;-56
2023/06/22 12:31:52;;;;;;;0.10;0.10;;;16.60;65.00;;;;;;5053397;28;20195;-54
2023/06/22 12:34:23;;;;;;;0.10;0.10;;;16.60;65.00;;;;;;5053025;28;20231;-54
2023/06/22 12:36:56;;;;;;;0.10;0.10;;;16.60;65.00;;;;;;5052413;28;20647;-52
2023/06/22 12:39:26;;;;;;;0.10;0.10;;;16.60;65.00;;;;;;5053411;28;20227;-58
2023/06/22 12:41:57;;;;;;;0.00;0.00;;;16.60;65.00;;;;;;5053286;28;20199;-51
2023/06/22 12:44:27;;;;;;;0.10;0.10;;;16.60;64.90;;;;;;5053347;28;20199;-57
2023/06/22 12:46:58;;;;;;;0.00;0.00;;;16.60;65.00;;;;;;5053288;28;20203;-54
2023/06/22 12:49:29;;;;;;;0.10;0.10;;;16.60;64.90;;;;;;5053093;28;20199;-52
2023/06/22 12:52:01;;;;;;;0.10;0.10;;;16.60;64.90;;;;;;5052788;28;20203;-55
2023/06/22 12:54:32;;;;;;;0.08;0.08;;;16.60;64.90;;;;;;5052684;28;20234;-55
2023/06/22 12:57:03;;;;;;;0.10;0.10;;;16.60;64.90;;;;;;5052784;28;20192;-56
2023/06/22 12:59:34;;;;;;;0.00;0.00;;;16.60;65.00;;;;;;5052701;28;20265;-57
2023/06/22 13:02:04;;;;;;;0.10;0.10;;;16.60;64.90;;;;;;5052656;28;20670;-52
2023/06/22 13:04:35;;;;;;;0.10;0.10;;;16.60;65.00;;;;;;5053116;28;20253;-55
2023/06/22 13:07:08;;;;;;;0.10;0.10;;;16.60;64.90;;;;;;5052681;28;20195;-52
2023/06/22 13:09:40;;;;;;;0.10;0.10;;;16.60;65.00;;;;;;5052443;28;20490;-54